| time (UTC) | temp F | wind direction | speed MPH | gust MPH | rain 1hr in | rain 24hr in | rain mn in | humidity % | barometer mb |
| 20260507080911 | 47 | 298 | 2.0 | 4.0 | 0.00 | 0.23 | 0.01 | 93 | 1012.5 |
| 20260507075911 | 47 | 89 | 2.0 | 4.0 | 0.00 | 0.26 | 0.01 | 93 | 1012.4 |
| 20260507074911 | 47 | 107 | 3.0 | 7.0 | 0.00 | 0.26 | 0.01 | 93 | 1012.4 |
| 20260507073911 | 47 | 202 | 2.0 | 4.0 | 0.00 | 0.26 | 0.01 | 93 | 1012.3 |
| 20260507072911 | 47 | 116 | 2.0 | 9.0 | 0.00 | 0.26 | 0.01 | 93 | 1012.2 |
| 20260507071911 | 47 | 234 | 3.0 | 11.0 | 0.00 | 0.26 | 0.01 | 93 | 1012.0 |
| 20260507070911 | 47 | 241 | 3.0 | 5.0 | 0.00 | 0.26 | 0.01 | 93 | 1011.9 |
| 20260507065911 | 47 | 312 | 3.0 | 9.0 | 0.00 | 0.35 | 0.01 | 93 | 1011.8 |
| 20260507064912 | 47 | 113 | 2.0 | 6.0 | 0.00 | 0.35 | 0.01 | 94 | 1011.8 |
| 20260507063912 | 47 | 243 | 3.0 | 8.0 | 0.00 | 0.35 | 0.01 | 93 | 1011.7 |
| 20260507062911 | 47 | 150 | 2.0 | 7.0 | 0.00 | 0.35 | 0.01 | 94 | 1011.6 |
| 20260507061911 | 47 | 123 | 2.0 | 8.0 | 0.00 | 0.35 | 0.01 | 94 | 1011.5 |
| 20260507060911 | 47 | 141 | 2.0 | 4.0 | 0.00 | 0.35 | 0.01 | 93 | 1011.4 |
| 20260507055911 | 47 | 327 | 3.0 | 8.0 | 0.00 | 0.44 | 0.01 | 93 | 1011.4 |
| 20260507054911 | 47 | 360 | 2.0 | 9.0 | 0.00 | 0.44 | 0.01 | 93 | 1011.3 |
| 20260507053911 | 47 | 360 | 2.0 | 6.0 | 0.00 | 0.44 | 0.01 | 93 | 1011.3 |
| 20260507052911 | 47 | 333 | 2.0 | 5.0 | 0.00 | 0.44 | 0.01 | 93 | 1011.1 |
| 20260507051911 | 47 | 360 | 2.0 | 7.0 | 0.00 | 0.44 | 0.01 | 93 | 1011.0 |
| 20260507050911 | 47 | 129 | 2.0 | 4.0 | 0.00 | 0.44 | 0.01 | 93 | 1010.9 |
| 20260507045911 | 47 | 126 | 2.0 | 6.0 | 0.00 | 0.55 | 0.01 | 93 | 1010.8 |
| 20260507044911 | 47 | 155 | 2.0 | 6.0 | 0.00 | 0.55 | 0.01 | 93 | 1010.7 |
| 20260507043911 | 46 | 92 | 2.0 | 8.0 | 0.00 | 0.55 | 0.01 | 93 | 1010.5 |
| 20260507042911 | 46 | 55 | 3.0 | 8.0 | 0.00 | 0.55 | 0.01 | 93 | 1010.3 |
| 20260507041911 | 46 | 360 | 2.0 | 6.0 | 0.00 | 0.55 | 0.01 | 93 | 1010.3 |
| 20260507040911 | 46 | 360 | 4.0 | 9.0 | 0.00 | 0.55 | 0.01 | 93 | 1010.2 |
| 20260507035911 | 46 | 94 | 4.0 | 10.0 | 0.00 | 0.64 | 0.01 | 93 | 1010.1 |
| 20260507034910 | 46 | 103 | 2.0 | 6.0 | 0.00 | 0.64 | 0.01 | 93 | 1010.2 |
| 20260507033911 | 46 | 124 | 3.0 | 8.0 | 0.00 | 0.64 | 0.01 | 93 | 1010.2 |
| 20260507032911 | 46 | 348 | 4.0 | 9.0 | 0.00 | 0.64 | 0.01 | 93 | 1010.2 |
| 20260507031911 | 46 | 331 | 3.0 | 10.0 | 0.00 | 0.64 | 0.01 | 93 | 1010.1 |
| 20260507030911 | 46 | 333 | 4.0 | 12.0 | 0.00 | 0.64 | 0.01 | 93 | 1010.1 |
| 20260507025911 | 47 | 328 | 4.0 | 11.0 | 0.00 | 0.73 | 0.01 | 93 | 1010.0 |
| 20260507024910 | 47 | 203 | 3.0 | 8.0 | 0.00 | 0.73 | 0.01 | 93 | 1009.9 |
| 20260507023911 | 47 | 323 | 4.0 | 9.0 | 0.00 | 0.73 | 0.01 | 93 | 1009.9 |
| 20260507022910 | 47 | 360 | 2.0 | 10.0 | 0.00 | 0.73 | 0.01 | 93 | 1009.9 |
| 20260507021911 | 47 | 355 | 3.0 | 8.0 | 0.00 | 0.73 | 0.01 | 93 | 1009.8 |
| 20260507020911 | 47 | 108 | 2.0 | 8.0 | 0.00 | 0.73 | 0.01 | 93 | 1009.8 |
| 20260507015911 | 47 | 95 | 2.0 | 5.0 | 0.01 | 0.84 | 0.01 | 93 | 1009.8 |
| 20260507014911 | 47 | 116 | 2.0 | 4.0 | 0.01 | 0.84 | 0.01 | 93 | 1009.6 |
| 20260507013911 | 47 | 360 | 2.0 | 5.0 | 0.01 | 0.84 | 0.01 | 93 | 1009.5 |
| 20260507012910 | 47 | 355 | 2.0 | 8.0 | 0.01 | 0.84 | 0.01 | 93 | 1009.4 |
| 20260507011911 | 47 | 90 | 2.0 | 6.0 | 0.01 | 0.84 | 0.01 | 93 | 1009.3 |
| 20260507010910 | 47 | 169 | 3.0 | 7.0 | 0.01 | 0.84 | 0.01 | 93 | 1009.5 |
| 20260507005911 | 47 | 360 | 2.0 | 6.0 | 0.00 | 0.94 | 0.00 | 93 | 1009.4 |
| 20260507004910 | 47 | 127 | 2.0 | 8.0 | 0.00 | 0.94 | 0.00 | 93 | 1009.4 |
| 20260507003910 | 47 | 143 | 2.0 | 5.0 | 0.00 | 0.94 | 0.00 | 93 | 1009.3 |
| 20260507002910 | 46 | 115 | 2.0 | 6.0 | 0.00 | 0.94 | 0.00 | 93 | 1009.3 |
| 20260507001911 | 46 | 109 | 3.0 | 6.0 | 0.00 | 0.94 | 0.00 | 94 | 1009.2 |
| 20260507000910 | 46 | 110 | 2.0 | 5.0 | 0.00 | 0.94 | 0.00 | 94 | 1009.1 |
| 20260506235910 | 46 | 355 | 4.0 | 12.0 | 0.00 | 1.04 | 0.00 | 94 | 1009.1 |
| 20260506234910 | 46 | 61 | 3.0 | 10.0 | 0.00 | 1.04 | 0.00 | 94 | 1009.0 |
| 20260506233910 | 46 | 178 | 6.0 | 12.0 | 0.00 | 1.04 | 0.00 | 94 | 1009.1 |
| 20260506232910 | 46 | 345 | 5.0 | 11.0 | 0.00 | 1.04 | 0.00 | 94 | 1009.1 |
| 20260506231910 | 47 | 360 | 3.0 | 9.0 | 0.00 | 1.04 | 0.00 | 94 | 1009.1 |
| 20260506230911 | 47 | 194 | 4.0 | 13.0 | 0.00 | 1.04 | 0.00 | 94 | 1009.0 |
| 20260506225910 | 47 | 129 | 2.0 | 4.0 | 0.00 | 1.06 | 0.00 | 94 | 1009.0 |
| 20260506224910 | 47 | 355 | 3.0 | 8.0 | 0.00 | 1.06 | 0.00 | 94 | 1008.9 |
| 20260506223910 | 47 | 197 | 3.0 | 9.0 | 0.00 | 1.06 | 0.00 | 94 | 1008.8 |
| 20260506222910 | 47 | 115 | 3.0 | 7.0 | 0.00 | 1.06 | 0.00 | 94 | 1008.7 |
| 20260506221910 | 47 | 130 | 3.0 | 5.0 | 0.01 | 1.06 | 0.00 | 94 | 1008.6 |
| 20260506220910 | 47 | 122 | 3.0 | 6.0 | 0.01 | 1.06 | 0.00 | 94 | 1008.5 |
| 20260506215910 | 47 | 180 | 3.0 | 7.0 | 0.01 | 1.06 | 1.06 | 94 | 1008.6 |
| 20260506214910 | 47 | 192 | 3.0 | 9.0 | 0.02 | 1.06 | 1.06 | 94 | 1008.5 |
| 20260506213910 | 47 | 57 | 3.0 | 10.0 | 0.02 | 1.06 | 1.06 | 94 | 1008.5 |
| 20260506212910 | 47 | 74 | 3.0 | 9.0 | 0.02 | 1.06 | 1.06 | 94 | 1008.3 |
| 20260506211910 | 47 | 300 | 3.0 | 13.0 | 0.02 | 1.05 | 1.05 | 94 | 1008.3 |
| 20260506210910 | 47 | 69 | 3.0 | 10.0 | 0.02 | 1.05 | 1.05 | 94 | 1008.2 |
| 20260506205910 | 47 | 196 | 3.0 | 10.0 | 0.02 | 1.05 | 1.05 | 94 | 1008.1 |
| 20260506204910 | 47 | 360 | 4.0 | 10.0 | 0.01 | 1.04 | 1.04 | 94 | 1008.1 |
| 20260506203910 | 47 | 116 | 3.0 | 9.0 | 0.01 | 1.04 | 1.04 | 94 | 1008.1 |
| 20260506202910 | 47 | 350 | 2.0 | 6.0 | 0.01 | 1.04 | 1.04 | 94 | 1008.1 |
| 20260506201910 | 47 | 355 | 5.0 | 10.0 | 0.00 | 1.03 | 1.03 | 94 | 1008.0 |
| 20260506200910 | 47 | 355 | 3.0 | 9.0 | 0.00 | 1.03 | 1.03 | 94 | 1008.0 |
| 20260506195910 | 47 | 344 | 4.0 | 12.0 | 0.00 | 1.03 | 1.03 | 94 | 1007.8 |
| 20260506194910 | 47 | 118 | 3.0 | 6.0 | 0.00 | 1.03 | 1.03 | 94 | 1007.8 |
| 20260506193910 | 47 | 144 | 3.0 | 5.0 | 0.00 | 1.03 | 1.03 | 93 | 1007.8 |
| 20260506192910 | 47 | 225 | 2.0 | 5.0 | 0.00 | 1.03 | 1.03 | 93 | 1007.7 |
| 20260506191910 | 47 | 360 | 2.0 | 9.0 | 0.00 | 1.03 | 1.03 | 93 | 1007.6 |
| 20260506190910 | 47 | 138 | 2.0 | 6.0 | 0.00 | 1.03 | 1.03 | 93 | 1007.6 |
| 20260506185910 | 47 | 109 | 3.0 | 7.0 | 0.00 | 1.03 | 1.03 | 93 | 1007.5 |
| 20260506184910 | 47 | 360 | 4.0 | 8.0 | 0.00 | 1.03 | 1.03 | 93 | 1007.3 |
| 20260506183910 | 47 | 193 | 4.0 | 9.0 | 0.00 | 1.03 | 1.03 | 93 | 1007.3 |
| 20260506182910 | 47 | 198 | 3.0 | 9.0 | 0.00 | 1.03 | 1.03 | 93 | 1007.2 |
| 20260506181910 | 47 | 236 | 3.0 | 9.0 | 0.00 | 1.03 | 1.03 | 93 | 1007.2 |
| 20260506180910 | 47 | 343 | 3.0 | 8.0 | 0.00 | 1.03 | 1.03 | 94 | 1007.2 |
| 20260506175910 | 47 | 290 | 3.0 | 6.0 | 0.00 | 1.03 | 1.03 | 94 | 1007.1 |
| 20260506174910 | 47 | 138 | 3.0 | 9.0 | 0.00 | 1.03 | 1.03 | 94 | 1007.0 |
| 20260506173910 | 47 | 167 | 4.0 | 8.0 | 0.00 | 1.03 | 1.03 | 94 | 1006.8 |
| 20260506172910 | 47 | 190 | 3.0 | 8.0 | 0.00 | 1.03 | 1.03 | 94 | 1006.8 |
| 20260506171910 | 47 | 190 | 4.0 | 8.0 | 0.01 | 1.03 | 1.03 | 94 | 1006.6 |
| 20260506170910 | 47 | 288 | 4.0 | 10.0 | 0.01 | 1.03 | 1.03 | 94 | 1006.7 |
| 20260506165910 | 47 | 20 | 4.0 | 10.0 | 0.01 | 1.03 | 1.03 | 94 | 1006.7 |
| 20260506164910 | 47 | 166 | 4.0 | 8.0 | 0.01 | 1.03 | 1.03 | 94 | 1006.6 |
| 20260506163910 | 47 | 169 | 4.0 | 12.0 | 0.01 | 1.03 | 1.03 | 94 | 1006.6 |
| 20260506162910 | 47 | 132 | 5.0 | 10.0 | 0.01 | 1.03 | 1.03 | 94 | 1006.7 |
| 20260506161910 | 47 | 122 | 3.0 | 7.0 | 0.00 | 1.02 | 1.02 | 94 | 1006.7 |
| 20260506160910 | 47 | 96 | 3.0 | 7.0 | 0.01 | 1.02 | 1.02 | 94 | 1006.6 |
| 20260506155910 | 47 | 107 | 4.0 | 8.0 | 0.01 | 1.02 | 1.02 | 93 | 1006.6 |
| 20260506154910 | 48 | 128 | 4.0 | 8.0 | 0.01 | 1.02 | 1.02 | 94 | 1006.7 |
| 20260506153910 | 48 | 183 | 4.0 | 10.0 | 0.01 | 1.02 | 1.02 | 94 | 1006.5 |
| 20260506152910 | 48 | 60 | 4.0 | 8.0 | 0.01 | 1.02 | 1.02 | 94 | 1006.5 |
| 20260506151910 | 48 | 86 | 4.0 | 9.0 | 0.02 | 1.02 | 1.02 | 94 | 1006.5 |
| 20260506150910 | 48 | 208 | 5.0 | 8.0 | 0.01 | 1.01 | 1.01 | 94 | 1006.3 |
| 20260506145910 | 48 | 150 | 4.0 | 11.0 | 0.02 | 1.01 | 1.01 | 94 | 1006.3 |
| 20260506144910 | 48 | 182 | 3.0 | 9.0 | 0.03 | 1.01 | 1.01 | 94 | 1006.3 |
| 20260506143910 | 48 | 178 | 3.0 | 7.0 | 0.04 | 1.01 | 1.01 | 94 | 1006.3 |
| 20260506142910 | 48 | 153 | 5.0 | 10.0 | 0.05 | 1.01 | 1.01 | 94 | 1006.2 |
| 20260506141910 | 48 | 306 | 3.0 | 9.0 | 0.04 | 1.00 | 1.00 | 94 | 1006.2 |
| 20260506140910 | 48 | 211 | 4.0 | 8.0 | 0.04 | 1.00 | 1.00 | 94 | 1006.3 |
| 20260506135910 | 48 | 291 | 3.0 | 7.0 | 0.04 | 0.99 | 0.99 | 94 | 1006.3 |
| 20260506134910 | 48 | 183 | 2.0 | 6.0 | 0.03 | 0.98 | 0.98 | 94 | 1006.4 |
| 20260506133910 | 48 | 248 | 2.0 | 5.0 | 0.03 | 0.97 | 0.97 | 94 | 1006.3 |
| 20260506132910 | 48 | 141 | 3.0 | 7.0 | 0.02 | 0.96 | 0.96 | 94 | 1006.3 |
| 20260506131910 | 48 | 177 | 4.0 | 8.0 | 0.03 | 0.96 | 0.96 | 94 | 1005.9 |
| 20260506130909 | 48 | 198 | 3.0 | 6.0 | 0.03 | 0.96 | 0.96 | 94 | 1005.8 |
| 20260506125910 | 48 | 244 | 3.0 | 7.0 | 0.02 | 0.95 | 0.95 | 94 | 1005.8 |
| 20260506124910 | 48 | 202 | 2.0 | 5.0 | 0.03 | 0.95 | 0.95 | 94 | 1005.9 |
| 20260506123909 | 48 | 173 | 3.0 | 5.0 | 0.03 | 0.94 | 0.94 | 95 | 1005.7 |
| 20260506122909 | 47 | 165 | 3.0 | 7.0 | 0.04 | 0.94 | 0.94 | 94 | 1005.8 |
| 20260506121910 | 47 | 227 | 2.0 | 6.0 | 0.03 | 0.94 | 0.94 | 94 | 1005.7 |
| 20260506120910 | 47 | 202 | 3.0 | 7.0 | 0.04 | 0.94 | 0.94 | 94 | 1005.6 |
| 20260506115910 | 47 | 180 | 2.0 | 7.0 | 0.05 | 0.94 | 0.94 | 94 | 1005.6 |
| 20260506114909 | 47 | 119 | 2.0 | 6.0 | 0.04 | 0.93 | 0.93 | 94 | 1005.5 |
| 20260506113917 | 47 | 94 | 2.0 | 5.0 | 0.04 | 0.92 | 0.92 | 94 | 1005.6 |
| 20260506112909 | 46 | 332 | 3.0 | 6.0 | 0.03 | 0.91 | 0.91 | 94 | 1005.6 |
| 20260506111909 | 46 | 192 | 3.0 | 5.0 | 0.03 | 0.91 | 0.91 | 94 | 1005.7 |
| 20260506110914 | 46 | 82 | 3.0 | 9.0 | 0.03 | 0.90 | 0.90 | 94 | 1005.6 |
| 20260506105914 | 46 | 99 | 4.0 | 9.0 | 0.02 | 0.89 | 0.89 | 94 | 1005.5 |
| 20260506104914 | 46 | 129 | 3.0 | 8.0 | 0.03 | 0.89 | 0.89 | 94 | 1005.6 |
| 20260506103914 | 46 | 204 | 3.0 | 8.0 | 0.02 | 0.88 | 0.88 | 94 | 1005.4 |
| 20260506102914 | 46 | 15 | 3.0 | 10.0 | 0.02 | 0.88 | 0.88 | 94 | 1005.5 |
| 20260506101914 | 45 | 115 | 4.0 | 9.0 | 0.03 | 0.88 | 0.88 | 94 | 1005.5 |
| 20260506100914 | 45 | 195 | 3.0 | 10.0 | 0.03 | 0.87 | 0.87 | 94 | 1005.4 |
| 20260506095914 | 46 | 244 | 4.0 | 13.0 | 0.03 | 0.87 | 0.87 | 94 | 1005.3 |
| 20260506094914 | 46 | 209 | 5.0 | 11.0 | 0.03 | 0.86 | 0.86 | 94 | 1005.3 |
| 20260506093914 | 45 | 113 | 4.0 | 10.0 | 0.03 | 0.86 | 0.86 | 94 | 1005.2 |
| 20260506092914 | 45 | 217 | 4.0 | 8.0 | 0.04 | 0.86 | 0.86 | 94 | 1005.1 |
| 20260506091914 | 45 | 289 | 4.0 | 8.0 | 0.04 | 0.85 | 0.85 | 94 | 1005.1 |
| 20260506090914 | 45 | 151 | 4.0 | 10.0 | 0.03 | 0.84 | 0.84 | 94 | 1005.0 |
| 20260506085914 | 45 | 237 | 5.0 | 12.0 | 0.04 | 0.84 | 0.84 | 94 | 1004.9 |
| 20260506084914 | 45 | 296 | 5.0 | 10.0 | 0.04 | 0.83 | 0.83 | 94 | 1004.8 |
| 20260506083914 | 45 | 196 | 5.0 | 12.0 | 0.05 | 0.83 | 0.83 | 94 | 1004.6 |
| 20260506082914 | 45 | 150 | 4.0 | 11.0 | 0.05 | 0.82 | 0.82 | 94 | 1004.6 |
| 20260506081914 | 44 | 101 | 4.0 | 8.0 | 0.06 | 0.81 | 0.81 | 94 | 1004.5 |